Flight Track Log - Related Links

Times and Time Zones

All times are in EDT time to prevent confusion due to time zone crossing. See the SKW5550 flight status page for this flight to view local times or setup timezone preferences in your user account.


Time Position Orientation Groundspeed Altitude Reporting Facility
EDT Latitude Longitude Course Direction KTS MPH feet Rate Location/Type
Sun 07:59:33 AM 44.5511 -108.9781 157° South 218 251 6,100  Level Salt Lake Center
Sun 08:00:33 AM 44.6164 -108.9697 North 248 285 8,200 2,200 Climbing Salt Lake Center
Sun 08:01:00 AM 44.1311 -108.6730 159° South  Level FlightAware Approximate
Sun 08:01:33 AM 44.6417 -108.8856 67° East 270 311 10,500  Level Salt Lake Center
Sun 08:02:00 AM 44.0323 -108.6190 159° South  Level FlightAware Approximate
Sun 08:02:34 AM 44.5622 -108.8561 165° South 295 339 11,700  Level Salt Lake Center
Sun 08:03:00 AM 43.9338 -108.5641 157° South  Level FlightAware Approximate
Sun 08:03:34 AM 44.4819 -108.7853 148° Southeast 332 382 14,000  Level Salt Lake Center
Sun 08:04:00 AM 43.8359 -108.5070 157° South  Level FlightAware Approximate
Sun 08:04:34 AM 44.3975 -108.7128 148° Southeast 353 406 15,200  Level Salt Lake Center
Sun 08:05:34 AM 44.3083 -108.6350 148° Southeast 371 427 16,400 1,240 Climbing Salt Lake Center
Sun 08:06:35 AM 44.2161 -108.5547 148° Southeast 386 444 17,700 1,240 Climbing Salt Lake Center
Sun 08:07:35 AM 44.1231 -108.4728 148° Southeast 394 453 18,900 1,250 Climbing Salt Lake Center
Sun 08:08:35 AM 44.0297 -108.3900 147° Southeast 398 458 20,200 1,300 Climbing Salt Lake Center
Sun 08:09:35 AM 43.9369 -108.3092 148° Southeast 397 457 21,500 1,250 Climbing Salt Lake Center
Sun 08:10:35 AM 43.8433 -108.2286 148° Southeast 397 457 22,700 1,041 Climbing Salt Lake Center
Sun 08:11:36 AM 43.7481 -108.1456 148° Southeast 405 466 23,600 893 Climbing Salt Lake Center
Sun 08:12:36 AM 43.6506 -108.0611 148° Southeast 413 475 24,500 900 Climbing Salt Lake Center
Sun 08:13:36 AM 43.5536 -107.9772 148° Southeast 414 476 25,400 900 Climbing Salt Lake Center
Sun 08:14:36 AM 43.4550 -107.8917 148° Southeast 419 482 26,300 893 Climbing Salt Lake Center
Sun 08:15:37 AM 43.3567 -107.8086 148° Southeast 417 480 27,200 893 Climbing Salt Lake Center
Sun 08:16:37 AM 43.2586 -107.7244 148° Southeast 417 480 28,100 900 Climbing Salt Lake Center
Sun 08:17:37 AM 43.1603 -107.6419 149° Southeast 416 479 29,000 893 Climbing Salt Lake Center
Sun 08:18:38 AM 43.0622 -107.5592 148° Southeast 414 476 29,900 893 Climbing Salt Lake Center
Sun 08:19:38 AM 42.9436 -107.4594 148° Southeast 418 481 30,800 550 Climbing Salt Lake Center
Sun 08:20:38 AM 42.8486 -107.3781 148° Southeast 420 483 31,000 99 Climbing Salt Lake Center
Sun 08:21:39 AM 42.7469 -107.2928 148° Southeast 438 504 31,000  Level Salt Lake Center
Sun 08:22:39 AM 42.6428 -107.2058 148° Southeast 452 520 31,000  Level Salt Lake Center
Sun 08:23:39 AM 42.5178 -107.1036 149° Southeast 463 533 31,000  Level Salt Lake Center
Sun 08:24:40 AM 42.4106 -107.0131 148° Southeast 470 541 31,000  Level Salt Lake Center
Sun 08:25:40 AM 42.3000 -106.9239 149° Southeast 477 549 31,000  Level Salt Lake Center
Sun 08:26:42 AM 42.1722 -106.8186 149° Southeast 482 555 31,000  Level Denver Center
Sun 08:27:42 AM 42.0631 -106.7306 149° Southeast 479 551 31,000  Level Denver Center
Sun 08:28:43 AM 41.9506 -106.6406 149° Southeast 486 559 31,000  Level Denver Center
Sun 08:29:43 AM 41.8236 -106.5369 149° Southeast 479 551 31,000  Level Denver Center
Sun 08:30:44 AM 41.7147 -106.4503 149° Southeast 483 556 31,000  Level Denver Center
Sun 08:31:44 AM 41.6053 -106.3636 149° Southeast 480 552 31,000  Level Denver Center
Sun 08:32:45 AM 41.4783 -106.2619 149° Southeast 478 550 31,000  Level Denver Center
Sun 08:33:45 AM 41.3592 -106.2025 159° South 479 551 31,000  Level Denver Center
Sun 08:34:46 AM 41.2389 -106.1508 162° South 474 545 31,000 -496 Level Denver Center
Sun 08:35:46 AM 41.0986 -106.0886 162° South 479 551 30,000 -1,190 Descending Denver Center
Sun 08:36:47 AM 40.9800 -106.0211 157° South 487 560 28,600 -1,587 Descending Denver Center
Sun 08:37:47 AM 40.8722 -105.9328 148° Southeast 465 535 26,800 -1,785 Descending Denver Center
Sun 08:38:48 AM 40.8000 -105.7981 125° Southeast 453 521 25,000 -1,785 Descending Denver Center
Sun 08:39:48 AM 40.7342 -105.6769 126° Southeast 415 478 23,200 -1,587 Descending Denver Center
Sun 08:40:49 AM 40.6708 -105.5606 126° Southeast 395 455 21,800 -1,377 Descending Denver Center
Sun 08:41:50 AM 40.6064 -105.4481 127° Southeast 386 444 20,400 -1,339 Descending Denver Center
Sun 08:42:50 AM 40.5433 -105.3306 125° Southeast 393 452 19,100 -1,339 Descending Denver Center
Sun 08:43:51 AM 40.4728 -105.2119 128° Southeast 389 448 17,700 -1,190 Descending Denver Center
Sun 08:44:51 AM 40.4075 -105.1056 129° Southeast 375 432 16,700 -1,934 Descending Denver Center
Sun 08:45:52 AM 40.3450 -105.0006 128° Southeast 366 421 13,800 -2,132 Descending Denver Center
Sun 08:46:52 AM 40.3058 -104.8872 114° Southeast 338 389 12,400 -1,488 Descending Denver Center
Sun 08:47:53 AM 40.2336 -104.8281 148° Southeast 303 349 10,800 -1,488 Descending Denver Center
Sun 08:48:53 AM 40.1572 -104.7781 153° Southeast 286 329 9,400 -1,339 Descending Denver Center
Sun 08:49:54 AM 40.0897 -104.7353 154° Southeast 272 313 8,100 -984 Descending Denver Center
Sun 08:50:55 AM 40.0261 -104.7000 157° South 252 290 7,400 -694 Descending Denver Center
Sun 08:51:55 AM 39.9636 -104.6939 176° South 228 262 6,700 -793 Descending Denver Center
Sun 08:52:56 AM 39.9150 -104.6956 182° South 174 200 5,800 -694 Descending Denver Center
Sun 08:53:56 AM 39.8742 -104.6964 181° South 148 170 5,300 -500 Descending Denver Center

Login

Don't have an account? Register now (free) for customized features, flight alerts, and more!